This is the latest recevied weather packets stored in our database for station/object KI7MOQ. If no packets are shown the sender has not sent any weather packets the latest 10 day(s).
| Time | Temp. | Humidity | Pressure | Rain* | Wind** | Luminosity | Snow |
|---|---|---|---|---|---|---|---|
| 1778272807 | 17.22° C | 52% | 1024 hPa | 0 mm | - | 59 W/m² | - |
| 1778272498 | 16.67° C | 54% | 1024.1 hPa | 0 mm | - | 69 W/m² | - |
| 1778272194 | 16.67° C | 53% | 1024.2 hPa | 0 mm | - | 126 W/m² | - |
| 1778271891 | 16.11° C | 55% | 1024.1 hPa | 0 mm | - | 107 W/m² | - |
| 1778271588 | 16.67° C | 54% | 1024.2 hPa | 0 mm | - | 112 W/m² | - |
| 1778271285 | 16.67° C | 53% | 1024.3 hPa | 0 mm | - | 109 W/m² | - |
| 1778270982 | 16.67° C | 55% | 1024.3 hPa | 0 mm | - | 183 W/m² | - |
| 1778270678 | 16.11° C | 55% | 1024.4 hPa | 0 mm | - | 142 W/m² | - |
| 1778270373 | 16.11° C | 55% | 1024.4 hPa | 0 mm | - | 113 W/m² | - |
| 1778270071 | 15° C | 58% | 1024.2 hPa | 0 mm | - | 144 W/m² | - |
| 1778269767 | 15° C | 58% | 1024.5 hPa | 0 mm | - | 101 W/m² | - |
| 1778269464 | 15° C | 58% | 1024.7 hPa | 0 mm | - | 93 W/m² | - |
| 1778269161 | 15.56° C | 57% | 1024.5 hPa | 0 mm | - | 118 W/m² | - |
| 1778268858 | 15.56° C | 56% | 1024.3 hPa | 0 mm | - | 130 W/m² | - |
| 1778268554 | 15.56° C | 56% | 1024.5 hPa | 0 mm | - | 105 W/m² | - |
| 1778268251 | 15.56° C | 58% | 1024.6 hPa | 0 mm | - | 152 W/m² | - |
| 1778267948 | 15° C | 57% | 1024.6 hPa | 0 mm | - | 107 W/m² | - |
| 1778267646 | 16.11° C | 54% | 1024.6 hPa | 0 mm | - | 103 W/m² | - |
| 1778267342 | 15.56° C | 57% | 1024.7 hPa | 0 mm | - | 675 W/m² | - |
| 1778267039 | 15° C | 59% | 1024.9 hPa | 0 mm | - | 149 W/m² | - |
| 1778266734 | 15° C | 59% | 1024.7 hPa | 0 mm | - | 100 W/m² | - |
| 1778266433 | 15° C | 60% | 1024.6 hPa | 0 mm | - | 164 W/m² | - |
| 1778266130 | 14.44° C | 60% | 1024.6 hPa | 0 mm | - | 422 W/m² | - |
| 1778265827 | 13.89° C | 62% | 1024.6 hPa | 0 mm | - | 137 W/m² | - |
| 1778265523 | 13.89° C | 63% | 1024.7 hPa | 0 mm | - | 82 W/m² | - |
* Rain latest hour (hover to see other rain measurements)
** Current wind speed in m/s (hover to see current wind gust speed)